Ocean Sapphire — VRKL8 — position and weather

sailwx.info

Track history (hours):
 
Tides and Currents Weather Stations Pressure Air Temp Water Temp Dewpoint Dewpoint Depression Visibility Wind Speed Wind Dir Waves Ship Positions

Ocean Sapphire

Last reported at 2014-Oct-03 18:30 UTC. Time now 2014-Oct-21 12:02 UTC.
Position S 04°30' E 114°15'.
Warning: this ship's position is 17 days out of date.

Length 229 m; draft 7.9 m.

Type: Cargo ship. MMSI: 477065400.

Date/timePositionNaut miles runAvg speedWind from/ knotsBaromVisibWave heightAir tempDewpointWater temp
2014-Oct-03 18:30S 04°30' E 114°15'9 9.1
2014-Oct-03 17:33S 04°29' E 114°06'9 9.0
2014-Oct-03 16:33S 04°28' E 113°57'9 8.9
2014-Oct-03 15:32S 04°27' E 113°48'9 8.8
2014-Oct-03 14:33S 04°26' E 113°39'127 8.8
2014-Oct-03 00:09S 04°13' E 111°33'40 8.7
2014-Oct-02 19:34S 04°10' E 110°53'183 8.3
2014-Oct-01 21:34S 02°04' E 108°39'335 8.4
2014-Sep-30 05:31N 01°16' E 104°10'9 9.2
2014-Sep-30 04:33N 01°15' E 104°01'4 3.6
2014-Sep-30 03:26N 01°16' E 103°58'0 0.0
2014-Sep-30 02:23N 01°16' E 103°58'0 0.1
2014-Sep-30 01:32N 01°16' E 103°58'0 0.0
2014-Sep-30 00:29N 01°16' E 103°58'0 0.0
2014-Sep-29 23:32N 01°16' E 103°58'0 0.0
2014-Sep-29 22:32N 01°16' E 103°58'0 0.0
2014-Sep-29 21:29N 01°16' E 103°58'0 0.0
2014-Sep-29 20:29N 01°16' E 103°58'0 0.0
2014-Sep-29 19:32N 01°16' E 103°58'0 0.0
2014-Sep-29 18:32N 01°16' E 103°58'0 0.0
2014-Sep-29 17:32N 01°16' E 103°58'0 0.0
2014-Sep-29 16:32N 01°16' E 103°58'0 0.1
2014-Sep-29 15:23N 01°16' E 103°58'0 0.1
2014-Sep-29 14:32N 01°16' E 103°58'0 0.1
2014-Sep-29 13:32N 01°16' E 103°58'0 0.0
2014-Sep-29 12:32N 01°16' E 103°58'0 0.0
2014-Sep-29 11:29N 01°16' E 103°58'0 0.0
2014-Sep-29 10:33N 01°16' E 103°58'2 2.4
2014-Sep-29 09:33N 01°14' E 103°57'7 7.0
2014-Sep-29 08:33N 01°11' E 103°51'8 8.0
2014-Sep-29 07:33N 01°06' E 103°44'10 7.3
2014-Sep-29 06:08N 01°05' E 103°34'6 9.1
2014-Sep-29 05:30N 01°10' E 103°30'3 3.0
2014-Sep-29 04:33N 01°12' E 103°31'8 7.6
2014-Sep-29 03:33N 01°20' E 103°33'0 0.4
2014-Sep-29 02:25N 01°20' E 103°33'0 0.0
2014-Sep-29 01:28N 01°20' E 103°33'0 0.0
2014-Sep-29 00:16N 01°20' E 103°33'0 0.0
2014-Sep-28 23:31N 01°20' E 103°33'0 0.0
2014-Sep-28 22:28N 01°20' E 103°33'0 0.0
2014-Sep-28 21:31N 01°20' E 103°33'0 0.0
2014-Sep-28 20:31N 01°20' E 103°33'0 0.0
2014-Sep-28 19:28N 01°20' E 103°33'0 0.0
2014-Sep-28 18:25N 01°20' E 103°33'0 0.0
2014-Sep-28 17:25N 01°20' E 103°33'0 0.0
2014-Sep-28 16:19N 01°20' E 103°33'0 0.0
2014-Sep-28 15:28N 01°20' E 103°33'0 0.0
2014-Sep-28 14:31N 01°20' E 103°33'0 0.0
2014-Sep-28 13:31N 01°20' E 103°33'0 0.0
2014-Sep-28 12:31N 01°20' E 103°33'0 0.0
2014-Sep-28 11:31N 01°20' E 103°33'0 0.0
2014-Sep-28 10:31N 01°20' E 103°33'0 0.0
2014-Sep-28 09:28N 01°20' E 103°33'0 0.0
2014-Sep-28 08:31N 01°20' E 103°33'0 0.0
2014-Sep-28 07:19N 01°20' E 103°33'0 0.0
2014-Sep-28 06:25N 01°20' E 103°33'0 0.0
2014-Sep-28 05:28N 01°20' E 103°33'0 0.0
2014-Sep-28 03:25N 01°20' E 103°33'0 0.0
2014-Sep-28 02:31N 01°20' E 103°33'0 0.0
2014-Sep-28 00:28N 01°20' E 103°33'0 0.0
2014-Sep-27 21:10N 01°20' E 103°33'0 0.0
2014-Sep-27 20:28N 01°20' E 103°33'0 0.0
2014-Sep-27 17:31N 01°20' E 103°33'0 0.0
2014-Sep-27 16:07N 01°20' E 103°33'0 0.0
2014-Sep-27 15:28N 01°20' E 103°33'0 0.0
2014-Sep-27 14:31N 01°20' E 103°33'0 0.0
2014-Sep-27 13:31N 01°20' E 103°33'0 0.0
2014-Sep-27 12:25N 01°20' E 103°33'0 0.0
2014-Sep-27 11:31N 01°20' E 103°33'0 0.0
2014-Sep-27 10:25N 01°20' E 103°33'0 0.0
2014-Sep-27 09:31N 01°20' E 103°33'0 0.0
2014-Sep-27 08:31N 01°20' E 103°33'0 0.0
2014-Sep-27 06:28N 01°20' E 103°33'0 0.0
2014-Sep-27 03:28N 01°20' E 103°33'0 0.0
2014-Sep-27 02:13N 01°20' E 103°33'0 0.0
2014-Sep-27 01:07N 01°20' E 103°33'0 0.0
2014-Sep-26 23:22N 01°20' E 103°33'0 0.0
2014-Sep-26 22:28N 01°20' E 103°33'0 0.0
2014-Sep-26 20:31N 01°20' E 103°33'0 0.0
2014-Sep-26 19:31N 01°20' E 103°33'0 0.0
2014-Sep-26 18:28N 01°20' E 103°33'0 0.0
2014-Sep-26 17:10N 01°20' E 103°33'0 0.0
2014-Sep-26 15:04N 01°20' E 103°33'0 0.0
2014-Sep-26 14:34N 01°20' E 103°33'0 0.0
2014-Sep-26 13:30N 01°20' E 103°33'0 0.0
2014-Sep-26 12:16N 01°20' E 103°33'0 0.0
2014-Sep-26 09:27N 01°20' E 103°33'0 0.0
2014-Sep-26 08:28N 01°20' E 103°33'0 0.0
2014-Sep-26 07:27N 01°20' E 103°33'0 0.0
2014-Sep-26 06:34N 01°20' E 103°33'0 0.0
2014-Sep-26 05:33N 01°20' E 103°33'0 0.0
2014-Sep-26 04:22N 01°20' E 103°33'0 0.0
2014-Sep-26 03:21N 01°20' E 103°33'0 0.0
2014-Sep-26 02:33N 01°20' E 103°33'0 0.0
2014-Sep-26 01:27N 01°20' E 103°33'0 0.0
2014-Sep-26 00:27N 01°20' E 103°33'0 0.0
2014-Sep-25 23:25N 01°20' E 103°33'0 0.0
2014-Sep-25 22:33N 01°20' E 103°33'0 0.0
2014-Sep-25 21:21N 01°20' E 103°33'0 0.0
2014-Sep-25 20:33N 01°20' E 103°33'0 0.0
2014-Sep-25 19:30N 01°20' E 103°33'0 0.0
2014-Sep-25 18:34N 01°20' E 103°33'0 0.0
2014-Sep-25 17:33N 01°20' E 103°33'0 0.0
2014-Sep-25 16:30N 01°20' E 103°33'0 0.0
2014-Sep-25 15:33N 01°20' E 103°33'0 0.0
2014-Sep-25 14:30N 01°20' E 103°33'0 0.0
2014-Sep-25 13:33N 01°20' E 103°33'0 0.0
2014-Sep-25 12:30N 01°20' E 103°33'0 0.0
2014-Sep-25 11:30N 01°20' E 103°33'0 0.0
2014-Sep-25 10:33N 01°20' E 103°33'0 0.0
2014-Sep-25 09:18N 01°20' E 103°33'0 0.0
2014-Sep-25 08:33N 01°20' E 103°33'1 1.3
2014-Sep-25 07:33N 01°19' E 103°33'5 5.5
2014-Sep-25 06:33N 01°14' E 103°30'3 0.6
2014-Sep-25 01:28N 01°15' E 103°27'0 0.1
2014-Sep-25 00:25N 01°15' E 103°27'0 0.0
2014-Sep-24 23:31N 01°15' E 103°27'0 0.0
2014-Sep-24 22:31N 01°15' E 103°27'0 0.0
2014-Sep-24 21:31N 01°15' E 103°27'0 0.0
2014-Sep-24 20:22N 01°15' E 103°27'0 0.1
2014-Sep-24 19:28N 01°15' E 103°27'0 0.0
2014-Sep-24 18:31N 01°15' E 103°27'0 0.0
2014-Sep-24 15:04N 01°15' E 103°27'0 0.0
2014-Sep-24 14:31N 01°15' E 103°27'0 0.1
2014-Sep-24 13:13N 01°15' E 103°27'0 0.1
2014-Sep-24 12:31N 01°15' E 103°27'0 0.1
2014-Sep-24 11:31N 01°15' E 103°27'0 0.0
2014-Sep-24 10:28N 01°15' E 103°27'0 0.0
2014-Sep-23 23:22N 01°15' E 103°27'0 0.0
2014-Sep-23 22:19N 01°15' E 103°27'0 0.0
2014-Sep-23 20:31N 01°15' E 103°27'0 0.0
2014-Sep-23 19:31N 01°15' E 103°27'0 0.0
2014-Sep-23 18:31N 01°15' E 103°27'  
Track history (hours):
 
Tides and Currents Weather Stations Pressure Air Temp Water Temp Dewpoint Dewpoint Depression Visibility Wind Speed Wind Dir Waves Ship Positions

Ocean Sapphire

Last reported at 2014-Oct-03 18:30 UTC. Time now 2014-Oct-21 12:02 UTC.
Position S 04°30' E 114°15'.
Warning: this ship's position is 17 days out of date.

Length 229 m; draft 7.9 m.

Type: Cargo ship. MMSI: 477065400.

Date/timePositionNaut miles runAvg speedWind from/ knotsBaromVisibWave heightAir tempDewpointWater temp
2014-Oct-03 18:30S 04°30' E 114°15'9 9.1
2014-Oct-03 17:33S 04°29' E 114°06'9 9.0
2014-Oct-03 16:33S 04°28' E 113°57'9 8.9
2014-Oct-03 15:32S 04°27' E 113°48'9 8.8
2014-Oct-03 14:33S 04°26' E 113°39'127 8.8
2014-Oct-03 00:09S 04°13' E 111°33'40 8.7
2014-Oct-02 19:34S 04°10' E 110°53'183 8.3
2014-Oct-01 21:34S 02°04' E 108°39'335 8.4
2014-Sep-30 05:31N 01°16' E 104°10'9 9.2
2014-Sep-30 04:33N 01°15' E 104°01'4 3.6
2014-Sep-30 03:26N 01°16' E 103°58'0 0.0
2014-Sep-30 02:23N 01°16' E 103°58'0 0.1
2014-Sep-30 01:32N 01°16' E 103°58'0 0.0
2014-Sep-30 00:29N 01°16' E 103°58'0 0.0
2014-Sep-29 23:32N 01°16' E 103°58'0 0.0
2014-Sep-29 22:32N 01°16' E 103°58'0 0.0
2014-Sep-29 21:29N 01°16' E 103°58'0 0.0
2014-Sep-29 20:29N 01°16' E 103°58'0 0.0
2014-Sep-29 19:32N 01°16' E 103°58'0 0.0
2014-Sep-29 18:32N 01°16' E 103°58'0 0.0
2014-Sep-29 17:32N 01°16' E 103°58'0 0.0
2014-Sep-29 16:32N 01°16' E 103°58'0 0.1
2014-Sep-29 15:23N 01°16' E 103°58'0 0.1
2014-Sep-29 14:32N 01°16' E 103°58'0 0.1
2014-Sep-29 13:32N 01°16' E 103°58'0 0.0
2014-Sep-29 12:32N 01°16' E 103°58'0 0.0
2014-Sep-29 11:29N 01°16' E 103°58'0 0.0
2014-Sep-29 10:33N 01°16' E 103°58'2 2.4
2014-Sep-29 09:33N 01°14' E 103°57'7 7.0
2014-Sep-29 08:33N 01°11' E 103°51'8 8.0
2014-Sep-29 07:33N 01°06' E 103°44'10 7.3
2014-Sep-29 06:08N 01°05' E 103°34'6 9.1
2014-Sep-29 05:30N 01°10' E 103°30'3 3.0
2014-Sep-29 04:33N 01°12' E 103°31'8 7.6
2014-Sep-29 03:33N 01°20' E 103°33'0 0.4
2014-Sep-29 02:25N 01°20' E 103°33'0 0.0
2014-Sep-29 01:28N 01°20' E 103°33'0 0.0
2014-Sep-29 00:16N 01°20' E 103°33'0 0.0
2014-Sep-28 23:31N 01°20' E 103°33'0 0.0
2014-Sep-28 22:28N 01°20' E 103°33'0 0.0
2014-Sep-28 21:31N 01°20' E 103°33'0 0.0
2014-Sep-28 20:31N 01°20' E 103°33'0 0.0
2014-Sep-28 19:28N 01°20' E 103°33'0 0.0
2014-Sep-28 18:25N 01°20' E 103°33'0 0.0
2014-Sep-28 17:25N 01°20' E 103°33'0 0.0
2014-Sep-28 16:19N 01°20' E 103°33'0 0.0
2014-Sep-28 15:28N 01°20' E 103°33'0 0.0
2014-Sep-28 14:31N 01°20' E 103°33'0 0.0
2014-Sep-28 13:31N 01°20' E 103°33'0 0.0
2014-Sep-28 12:31N 01°20' E 103°33'0 0.0
2014-Sep-28 11:31N 01°20' E 103°33'0 0.0
2014-Sep-28 10:31N 01°20' E 103°33'0 0.0
2014-Sep-28 09:28N 01°20' E 103°33'0 0.0
2014-Sep-28 08:31N 01°20' E 103°33'0 0.0
2014-Sep-28 07:19N 01°20' E 103°33'0 0.0
2014-Sep-28 06:25N 01°20' E 103°33'0 0.0
2014-Sep-28 05:28N 01°20' E 103°33'0 0.0
2014-Sep-28 03:25N 01°20' E 103°33'0 0.0
2014-Sep-28 02:31N 01°20' E 103°33'0 0.0
2014-Sep-28 00:28N 01°20' E 103°33'0 0.0
2014-Sep-27 21:10N 01°20' E 103°33'0 0.0
2014-Sep-27 20:28N 01°20' E 103°33'0 0.0
2014-Sep-27 17:31N 01°20' E 103°33'0 0.0
2014-Sep-27 16:07N 01°20' E 103°33'0 0.0
2014-Sep-27 15:28N 01°20' E 103°33'0 0.0
2014-Sep-27 14:31N 01°20' E 103°33'0 0.0
2014-Sep-27 13:31N 01°20' E 103°33'0 0.0
2014-Sep-27 12:25N 01°20' E 103°33'0 0.0
2014-Sep-27 11:31N 01°20' E 103°33'0 0.0
2014-Sep-27 10:25N 01°20' E 103°33'0 0.0
2014-Sep-27 09:31N 01°20' E 103°33'0 0.0
2014-Sep-27 08:31N 01°20' E 103°33'0 0.0
2014-Sep-27 06:28N 01°20' E 103°33'0 0.0
2014-Sep-27 03:28N 01°20' E 103°33'0 0.0
2014-Sep-27 02:13N 01°20' E 103°33'0 0.0
2014-Sep-27 01:07N 01°20' E 103°33'0 0.0
2014-Sep-26 23:22N 01°20' E 103°33'0 0.0
2014-Sep-26 22:28N 01°20' E 103°33'0 0.0
2014-Sep-26 20:31N 01°20' E 103°33'0 0.0
2014-Sep-26 19:31N 01°20' E 103°33'0 0.0
2014-Sep-26 18:28N 01°20' E 103°33'0 0.0
2014-Sep-26 17:10N 01°20' E 103°33'0 0.0
2014-Sep-26 15:04N 01°20' E 103°33'0 0.0
2014-Sep-26 14:34N 01°20' E 103°33'0 0.0
2014-Sep-26 13:30N 01°20' E 103°33'0 0.0
2014-Sep-26 12:16N 01°20' E 103°33'0 0.0
2014-Sep-26 09:27N 01°20' E 103°33'0 0.0
2014-Sep-26 08:28N 01°20' E 103°33'0 0.0
2014-Sep-26 07:27N 01°20' E 103°33'0 0.0
2014-Sep-26 06:34N 01°20' E 103°33'0 0.0
2014-Sep-26 05:33N 01°20' E 103°33'0 0.0
2014-Sep-26 04:22N 01°20' E 103°33'0 0.0
2014-Sep-26 03:21N 01°20' E 103°33'0 0.0
2014-Sep-26 02:33N 01°20' E 103°33'0 0.0
2014-Sep-26 01:27N 01°20' E 103°33'0 0.0
2014-Sep-26 00:27N 01°20' E 103°33'0 0.0
2014-Sep-25 23:25N 01°20' E 103°33'0 0.0
2014-Sep-25 22:33N 01°20' E 103°33'0 0.0
2014-Sep-25 21:21N 01°20' E 103°33'0 0.0
2014-Sep-25 20:33N 01°20' E 103°33'0 0.0
2014-Sep-25 19:30N 01°20' E 103°33'0 0.0
2014-Sep-25 18:34N 01°20' E 103°33'0 0.0
2014-Sep-25 17:33N 01°20' E 103°33'0 0.0
2014-Sep-25 16:30N 01°20' E 103°33'0 0.0
2014-Sep-25 15:33N 01°20' E 103°33'0 0.0
2014-Sep-25 14:30N 01°20' E 103°33'0 0.0
2014-Sep-25 13:33N 01°20' E 103°33'0 0.0
2014-Sep-25 12:30N 01°20' E 103°33'0 0.0
2014-Sep-25 11:30N 01°20' E 103°33'0 0.0
2014-Sep-25 10:33N 01°20' E 103°33'0 0.0
2014-Sep-25 09:18N 01°20' E 103°33'0 0.0
2014-Sep-25 08:33N 01°20' E 103°33'1 1.3
2014-Sep-25 07:33N 01°19' E 103°33'5 5.5
2014-Sep-25 06:33N 01°14' E 103°30'3 0.6
2014-Sep-25 01:28N 01°15' E 103°27'0 0.1
2014-Sep-25 00:25N 01°15' E 103°27'0 0.0
2014-Sep-24 23:31N 01°15' E 103°27'0 0.0
2014-Sep-24 22:31N 01°15' E 103°27'0 0.0
2014-Sep-24 21:31N 01°15' E 103°27'0 0.0
2014-Sep-24 20:22N 01°15' E 103°27'0 0.1
2014-Sep-24 19:28N 01°15' E 103°27'0 0.0
2014-Sep-24 18:31N 01°15' E 103°27'0 0.0
2014-Sep-24 15:04N 01°15' E 103°27'0 0.0
2014-Sep-24 14:31N 01°15' E 103°27'0 0.1
2014-Sep-24 13:13N 01°15' E 103°27'0 0.1
2014-Sep-24 12:31N 01°15' E 103°27'0 0.1
2014-Sep-24 11:31N 01°15' E 103°27'0 0.0
2014-Sep-24 10:28N 01°15' E 103°27'0 0.0
2014-Sep-23 23:22N 01°15' E 103°27'0 0.0
2014-Sep-23 22:19N 01°15' E 103°27'0 0.0
2014-Sep-23 20:31N 01°15' E 103°27'0 0.0
2014-Sep-23 19:31N 01°15' E 103°27'0 0.0
2014-Sep-23 18:31N 01°15' E 103°27'  

Dump ship's entire track history